< < Back
Terminal Aerodrome Forecast


Current Version              Previous Versions:   1  2  3  4  5  6  7  8  9  

Terminal Aerodrome Forecast

840
FTUS44 KMRX 301730
TAFTYS
TAF
KTYS 301730Z 3018/3118 25004KT P6SM SCT035
     FM302100 25005KT P6SM VCTS BKN035CB
     FM310000 25005KT P6SM BKN250
     FM310700 00000KT 5SM BR SCT030
      TEMPO 3109/3113 3SM BR BKN025
     FM311400 23005KT P6SM FEW025 BKN200=



Latest METAR

312
SAUS80 KWBC 302200 RRB
MTRTYS
METAR KTYS 302153Z 24010KT 10SM FEW047 SCT250 31/20 A2997 RMK AO2 SLP137
T03110200


USA.gov is the U.S. government's official web portal to all federal, state and local government web resources and services.